sensor_id;sensor_type;location;lat;lon;timestamp;P1;durP1;ratioP1;P2;durP2;ratioP2
79487;SDS011;68949;53.176;18.088;2023-04-26T00:02:16;5.10;;;1.30;;
79487;SDS011;68949;53.176;18.088;2023-04-26T00:04:44;6.40;;;1.30;;
79487;SDS011;68949;53.176;18.088;2023-04-26T00:07:12;6.60;;;1.70;;
79487;SDS011;68949;53.176;18.088;2023-04-26T00:09:39;9.80;;;1.60;;
79487;SDS011;68949;53.176;18.088;2023-04-26T00:12:07;9.80;;;1.60;;
79487;SDS011;68949;53.176;18.088;2023-04-26T00:14:34;4.60;;;0.80;;
79487;SDS011;68949;53.176;18.088;2023-04-26T00:17:00;6.50;;;1.80;;
79487;SDS011;68949;53.176;18.088;2023-04-26T00:19:29;6.10;;;1.60;;
79487;SDS011;68949;53.176;18.088;2023-04-26T00:21:57;10.30;;;2.00;;
79487;SDS011;68949;53.176;18.088;2023-04-26T00:24:24;10.30;;;1.30;;
79487;SDS011;68949;53.176;18.088;2023-04-26T00:26:54;7.50;;;1.90;;
79487;SDS011;68949;53.176;18.088;2023-04-26T00:29:21;11.90;;;2.30;;
79487;SDS011;68949;53.176;18.088;2023-04-26T00:31:48;9.30;;;2.40;;
79487;SDS011;68949;53.176;18.088;2023-04-26T00:34:14;11.30;;;2.00;;
79487;SDS011;68949;53.176;18.088;2023-04-26T00:36:41;8.40;;;1.90;;
79487;SDS011;68949;53.176;18.088;2023-04-26T00:39:08;7.50;;;2.40;;
79487;SDS011;68949;53.176;18.088;2023-04-26T00:41:35;10.60;;;2.40;;
79487;SDS011;68949;53.176;18.088;2023-04-26T00:44:02;7.40;;;1.80;;
79487;SDS011;68949;53.176;18.088;2023-04-26T00:46:29;6.50;;;1.70;;
79487;SDS011;68949;53.176;18.088;2023-04-26T00:48:56;7.00;;;1.80;;
79487;SDS011;68949;53.176;18.088;2023-04-26T00:51:23;4.70;;;1.10;;
79487;SDS011;68949;53.176;18.088;2023-04-26T00:53:50;8.90;;;2.20;;
79487;SDS011;68949;53.176;18.088;2023-04-26T00:56:17;12.60;;;2.10;;
79487;SDS011;68949;53.176;18.088;2023-04-26T00:58:45;5.90;;;1.60;;
79487;SDS011;68949;53.176;18.088;2023-04-26T01:01:12;7.90;;;1.50;;
79487;SDS011;68949;53.176;18.088;2023-04-26T01:03:39;5.40;;;0.90;;
79487;SDS011;68949;53.176;18.088;2023-04-26T01:06:06;7.10;;;1.40;;
79487;SDS011;68949;53.176;18.088;2023-04-26T01:08:32;6.50;;;1.60;;
79487;SDS011;68949;53.176;18.088;2023-04-26T01:11:00;6.80;;;1.40;;
79487;SDS011;68949;53.176;18.088;2023-04-26T01:13:28;7.10;;;1.60;;
79487;SDS011;68949;53.176;18.088;2023-04-26T01:15:57;6.80;;;1.50;;
79487;SDS011;68949;53.176;18.088;2023-04-26T01:18:25;7.20;;;1.80;;
79487;SDS011;68949;53.176;18.088;2023-04-26T01:20:52;8.10;;;1.70;;
79487;SDS011;68949;53.176;18.088;2023-04-26T01:23:19;6.30;;;1.60;;
79487;SDS011;68949;53.176;18.088;2023-04-26T01:25:47;6.60;;;1.20;;
79487;SDS011;68949;53.176;18.088;2023-04-26T01:28:14;7.70;;;1.60;;
79487;SDS011;68949;53.176;18.088;2023-04-26T01:30:41;6.80;;;1.40;;
79487;SDS011;68949;53.176;18.088;2023-04-26T01:33:08;4.60;;;0.70;;
79487;SDS011;68949;53.176;18.088;2023-04-26T01:35:35;8.60;;;1.30;;
79487;SDS011;68949;53.176;18.088;2023-04-26T01:38:02;7.80;;;1.20;;
79487;SDS011;68949;53.176;18.088;2023-04-26T01:40:29;5.90;;;1.00;;
79487;SDS011;68949;53.176;18.088;2023-04-26T01:42:56;9.70;;;1.40;;
79487;SDS011;68949;53.176;18.088;2023-04-26T01:45:23;8.40;;;1.50;;
79487;SDS011;68949;53.176;18.088;2023-04-26T01:48:08;3.90;;;0.50;;
79487;SDS011;68949;53.176;18.088;2023-04-26T01:50:35;5.30;;;0.60;;
79487;SDS011;68949;53.176;18.088;2023-04-26T01:53:01;4.20;;;0.60;;
79487;SDS011;68949;53.176;18.088;2023-04-26T01:55:28;5.00;;;0.70;;
79487;SDS011;68949;53.176;18.088;2023-04-26T01:57:55;2.50;;;0.40;;
79487;SDS011;68949;53.176;18.088;2023-04-26T02:00:22;3.50;;;0.40;;
79487;SDS011;68949;53.176;18.088;2023-04-26T02:02:49;4.80;;;0.80;;
79487;SDS011;68949;53.176;18.088;2023-04-26T02:05:15;4.50;;;0.80;;
79487;SDS011;68949;53.176;18.088;2023-04-26T02:07:42;2.40;;;0.20;;
79487;SDS011;68949;53.176;18.088;2023-04-26T02:10:09;6.20;;;0.70;;
79487;SDS011;68949;53.176;18.088;2023-04-26T02:12:36;5.40;;;0.90;;
79487;SDS011;68949;53.176;18.088;2023-04-26T02:15:03;6.50;;;0.60;;
79487;SDS011;68949;53.176;18.088;2023-04-26T02:17:30;5.40;;;1.00;;
79487;SDS011;68949;53.176;18.088;2023-04-26T02:19:58;4.00;;;0.60;;
79487;SDS011;68949;53.176;18.088;2023-04-26T02:22:25;4.10;;;0.90;;
79487;SDS011;68949;53.176;18.088;2023-04-26T02:24:52;4.00;;;0.40;;
79487;SDS011;68949;53.176;18.088;2023-04-26T02:27:18;5.30;;;0.90;;
79487;SDS011;68949;53.176;18.088;2023-04-26T02:29:45;3.00;;;0.60;;
79487;SDS011;68949;53.176;18.088;2023-04-26T02:32:12;4.00;;;0.70;;
79487;SDS011;68949;53.176;18.088;2023-04-26T02:34:40;4.10;;;0.50;;
79487;SDS011;68949;53.176;18.088;2023-04-26T02:37:08;2.40;;;0.40;;
79487;SDS011;68949;53.176;18.088;2023-04-26T02:39:35;2.10;;;0.60;;
79487;SDS011;68949;53.176;18.088;2023-04-26T02:42:02;4.90;;;0.70;;
79487;SDS011;68949;53.176;18.088;2023-04-26T02:44:29;3.40;;;0.80;;
79487;SDS011;68949;53.176;18.088;2023-04-26T02:46:56;3.40;;;0.60;;
79487;SDS011;68949;53.176;18.088;2023-04-26T02:49:23;3.80;;;0.80;;
79487;SDS011;68949;53.176;18.088;2023-04-26T02:51:50;4.30;;;0.80;;
79487;SDS011;68949;53.176;18.088;2023-04-26T02:54:17;5.90;;;1.00;;
79487;SDS011;68949;53.176;18.088;2023-04-26T02:56:43;5.50;;;0.90;;
79487;SDS011;68949;53.176;18.088;2023-04-26T02:59:10;6.30;;;0.90;;
79487;SDS011;68949;53.176;18.088;2023-04-26T03:01:37;5.90;;;0.90;;
79487;SDS011;68949;53.176;18.088;2023-04-26T03:04:03;10.00;;;1.00;;
79487;SDS011;68949;53.176;18.088;2023-04-26T03:06:30;8.60;;;1.60;;
79487;SDS011;68949;53.176;18.088;2023-04-26T03:08:57;6.80;;;1.10;;
79487;SDS011;68949;53.176;18.088;2023-04-26T03:11:23;10.30;;;1.40;;
79487;SDS011;68949;53.176;18.088;2023-04-26T03:13:51;4.20;;;0.80;;
79487;SDS011;68949;53.176;18.088;2023-04-26T03:16:19;3.50;;;0.80;;
79487;SDS011;68949;53.176;18.088;2023-04-26T03:18:49;4.40;;;0.80;;
79487;SDS011;68949;53.176;18.088;2023-04-26T03:21:16;4.70;;;0.80;;
79487;SDS011;68949;53.176;18.088;2023-04-26T03:23:42;3.00;;;0.70;;
79487;SDS011;68949;53.176;18.088;2023-04-26T03:26:09;7.00;;;0.80;;
79487;SDS011;68949;53.176;18.088;2023-04-26T03:28:36;8.20;;;1.20;;
79487;SDS011;68949;53.176;18.088;2023-04-26T03:31:03;4.00;;;0.60;;
79487;SDS011;68949;53.176;18.088;2023-04-26T03:33:30;7.60;;;1.30;;
79487;SDS011;68949;53.176;18.088;2023-04-26T03:35:57;4.30;;;0.90;;
79487;SDS011;68949;53.176;18.088;2023-04-26T03:38:24;7.50;;;1.20;;
79487;SDS011;68949;53.176;18.088;2023-04-26T03:40:51;5.00;;;0.90;;
79487;SDS011;68949;53.176;18.088;2023-04-26T03:43:18;8.00;;;1.00;;
79487;SDS011;68949;53.176;18.088;2023-04-26T03:45:48;4.70;;;1.00;;
79487;SDS011;68949;53.176;18.088;2023-04-26T03:48:15;6.50;;;1.00;;
79487;SDS011;68949;53.176;18.088;2023-04-26T03:50:42;6.80;;;1.20;;
79487;SDS011;68949;53.176;18.088;2023-04-26T03:53:11;6.50;;;0.90;;
79487;SDS011;68949;53.176;18.088;2023-04-26T03:55:38;4.40;;;0.70;;
79487;SDS011;68949;53.176;18.088;2023-04-26T03:58:05;7.60;;;1.40;;
79487;SDS011;68949;53.176;18.088;2023-04-26T04:00:36;5.90;;;1.30;;
79487;SDS011;68949;53.176;18.088;2023-04-26T04:03:05;3.70;;;0.50;;
79487;SDS011;68949;53.176;18.088;2023-04-26T04:05:32;5.40;;;1.00;;
79487;SDS011;68949;53.176;18.088;2023-04-26T04:08:00;5.50;;;0.70;;
79487;SDS011;68949;53.176;18.088;2023-04-26T04:10:27;5.30;;;1.10;;
79487;SDS011;68949;53.176;18.088;2023-04-26T04:12:55;6.00;;;0.90;;
79487;SDS011;68949;53.176;18.088;2023-04-26T04:15:22;6.00;;;1.00;;
79487;SDS011;68949;53.176;18.088;2023-04-26T04:17:49;6.80;;;1.00;;
79487;SDS011;68949;53.176;18.088;2023-04-26T04:20:16;7.00;;;1.50;;
79487;SDS011;68949;53.176;18.088;2023-04-26T04:22:43;4.90;;;1.20;;
79487;SDS011;68949;53.176;18.088;2023-04-26T04:25:10;6.90;;;1.00;;
79487;SDS011;68949;53.176;18.088;2023-04-26T04:27:38;5.10;;;0.60;;
79487;SDS011;68949;53.176;18.088;2023-04-26T04:30:08;6.50;;;0.90;;
79487;SDS011;68949;53.176;18.088;2023-04-26T04:32:35;6.40;;;1.10;;
79487;SDS011;68949;53.176;18.088;2023-04-26T04:35:02;7.00;;;1.40;;
79487;SDS011;68949;53.176;18.088;2023-04-26T04:37:30;7.50;;;1.70;;
79487;SDS011;68949;53.176;18.088;2023-04-26T04:40:01;6.30;;;1.60;;
79487;SDS011;68949;53.176;18.088;2023-04-26T04:42:30;7.40;;;1.40;;
79487;SDS011;68949;53.176;18.088;2023-04-26T04:44:57;7.60;;;1.40;;
79487;SDS011;68949;53.176;18.088;2023-04-26T04:47:26;6.80;;;1.00;;
79487;SDS011;68949;53.176;18.088;2023-04-26T04:49:53;5.30;;;1.10;;
79487;SDS011;68949;53.176;18.088;2023-04-26T04:52:20;5.30;;;1.00;;
79487;SDS011;68949;53.176;18.088;2023-04-26T04:54:48;5.60;;;1.00;;
79487;SDS011;68949;53.176;18.088;2023-04-26T04:57:15;4.50;;;0.90;;
79487;SDS011;68949;53.176;18.088;2023-04-26T04:59:44;6.50;;;1.20;;
79487;SDS011;68949;53.176;18.088;2023-04-26T05:02:10;7.00;;;1.40;;
79487;SDS011;68949;53.176;18.088;2023-04-26T05:04:37;5.80;;;1.10;;
79487;SDS011;68949;53.176;18.088;2023-04-26T05:07:05;4.00;;;0.70;;
79487;SDS011;68949;53.176;18.088;2023-04-26T05:09:33;3.20;;;0.70;;
79487;SDS011;68949;53.176;18.088;2023-04-26T05:12:00;6.10;;;1.20;;
79487;SDS011;68949;53.176;18.088;2023-04-26T05:14:28;6.00;;;1.10;;
79487;SDS011;68949;53.176;18.088;2023-04-26T05:16:55;5.30;;;0.70;;
79487;SDS011;68949;53.176;18.088;2023-04-26T05:19:23;3.00;;;0.40;;
79487;SDS011;68949;53.176;18.088;2023-04-26T05:21:51;6.30;;;0.70;;
79487;SDS011;68949;53.176;18.088;2023-04-26T05:24:18;7.20;;;1.00;;
79487;SDS011;68949;53.176;18.088;2023-04-26T05:26:44;4.90;;;0.60;;
79487;SDS011;68949;53.176;18.088;2023-04-26T05:29:37;6.50;;;0.80;;
79487;SDS011;68949;53.176;18.088;2023-04-26T05:32:08;6.90;;;0.70;;
79487;SDS011;68949;53.176;18.088;2023-04-26T05:34:49;6.30;;;0.90;;
79487;SDS011;68949;53.176;18.088;2023-04-26T05:37:16;3.80;;;0.60;;
79487;SDS011;68949;53.176;18.088;2023-04-26T05:39:43;4.70;;;0.60;;
79487;SDS011;68949;53.176;18.088;2023-04-26T05:42:10;6.10;;;0.50;;
79487;SDS011;68949;53.176;18.088;2023-04-26T05:44:37;3.30;;;0.60;;
79487;SDS011;68949;53.176;18.088;2023-04-26T05:47:04;8.00;;;0.80;;
79487;SDS011;68949;53.176;18.088;2023-04-26T05:49:30;5.90;;;0.90;;
79487;SDS011;68949;53.176;18.088;2023-04-26T05:51:58;4.20;;;0.50;;
79487;SDS011;68949;53.176;18.088;2023-04-26T05:54:27;4.40;;;0.60;;
79487;SDS011;68949;53.176;18.088;2023-04-26T05:56:53;6.30;;;0.60;;
79487;SDS011;68949;53.176;18.088;2023-04-26T05:59:20;5.90;;;0.60;;
79487;SDS011;68949;53.176;18.088;2023-04-26T06:01:47;4.50;;;0.80;;
79487;SDS011;68949;53.176;18.088;2023-04-26T06:04:14;3.50;;;0.40;;
79487;SDS011;68949;53.176;18.088;2023-04-26T06:06:48;6.50;;;0.90;;
79487;SDS011;68949;53.176;18.088;2023-04-26T06:09:14;4.90;;;0.70;;
79487;SDS011;68949;53.176;18.088;2023-04-26T06:11:41;4.70;;;0.60;;
79487;SDS011;68949;53.176;18.088;2023-04-26T06:14:08;2.70;;;0.50;;
79487;SDS011;68949;53.176;18.088;2023-04-26T06:16:35;2.90;;;0.50;;
79487;SDS011;68949;53.176;18.088;2023-04-26T06:19:02;5.80;;;0.70;;
79487;SDS011;68949;53.176;18.088;2023-04-26T06:21:28;3.90;;;0.70;;
79487;SDS011;68949;53.176;18.088;2023-04-26T06:23:55;7.40;;;0.60;;
79487;SDS011;68949;53.176;18.088;2023-04-26T06:26:23;3.90;;;0.50;;
79487;SDS011;68949;53.176;18.088;2023-04-26T06:28:50;3.30;;;0.70;;
79487;SDS011;68949;53.176;18.088;2023-04-26T06:31:16;4.60;;;0.60;;
79487;SDS011;68949;53.176;18.088;2023-04-26T06:33:43;4.90;;;0.60;;
79487;SDS011;68949;53.176;18.088;2023-04-26T06:36:10;3.20;;;0.30;;
79487;SDS011;68949;53.176;18.088;2023-04-26T06:38:38;8.60;;;1.00;;
79487;SDS011;68949;53.176;18.088;2023-04-26T06:41:05;6.50;;;0.70;;
79487;SDS011;68949;53.176;18.088;2023-04-26T06:43:32;1.90;;;0.50;;
79487;SDS011;68949;53.176;18.088;2023-04-26T06:46:07;5.10;;;0.70;;
79487;SDS011;68949;53.176;18.088;2023-04-26T06:48:33;5.00;;;0.80;;
79487;SDS011;68949;53.176;18.088;2023-04-26T06:51:06;3.60;;;0.70;;
79487;SDS011;68949;53.176;18.088;2023-04-26T06:53:34;7.80;;;1.10;;
79487;SDS011;68949;53.176;18.088;2023-04-26T06:56:02;8.10;;;1.00;;
79487;SDS011;68949;53.176;18.088;2023-04-26T06:58:29;5.50;;;0.80;;
79487;SDS011;68949;53.176;18.088;2023-04-26T07:00:56;3.90;;;0.50;;
79487;SDS011;68949;53.176;18.088;2023-04-26T07:03:22;5.60;;;0.80;;
79487;SDS011;68949;53.176;18.088;2023-04-26T07:05:49;4.60;;;0.80;;
79487;SDS011;68949;53.176;18.088;2023-04-26T07:08:16;4.60;;;0.80;;
79487;SDS011;68949;53.176;18.088;2023-04-26T07:10:43;4.70;;;0.90;;
79487;SDS011;68949;53.176;18.088;2023-04-26T07:13:10;3.90;;;0.70;;
79487;SDS011;68949;53.176;18.088;2023-04-26T07:15:36;5.40;;;1.00;;
79487;SDS011;68949;53.176;18.088;2023-04-26T07:18:03;4.20;;;0.80;;
79487;SDS011;68949;53.176;18.088;2023-04-26T07:20:30;8.40;;;0.70;;
79487;SDS011;68949;53.176;18.088;2023-04-26T07:22:56;7.30;;;0.80;;
79487;SDS011;68949;53.176;18.088;2023-04-26T07:25:23;4.60;;;0.50;;
79487;SDS011;68949;53.176;18.088;2023-04-26T07:27:50;5.00;;;0.90;;
79487;SDS011;68949;53.176;18.088;2023-04-26T07:30:17;7.80;;;1.00;;
79487;SDS011;68949;53.176;18.088;2023-04-26T07:32:44;5.80;;;0.60;;
79487;SDS011;68949;53.176;18.088;2023-04-26T07:35:11;4.80;;;0.40;;
79487;SDS011;68949;53.176;18.088;2023-04-26T07:37:42;5.20;;;0.50;;
79487;SDS011;68949;53.176;18.088;2023-04-26T07:40:13;4.00;;;0.60;;
79487;SDS011;68949;53.176;18.088;2023-04-26T07:42:40;5.30;;;0.90;;
79487;SDS011;68949;53.176;18.088;2023-04-26T07:45:07;4.20;;;0.60;;
79487;SDS011;68949;53.176;18.088;2023-04-26T07:47:34;5.00;;;0.60;;
79487;SDS011;68949;53.176;18.088;2023-04-26T07:50:01;5.20;;;0.60;;
79487;SDS011;68949;53.176;18.088;2023-04-26T07:52:28;6.10;;;1.00;;
79487;SDS011;68949;53.176;18.088;2023-04-26T07:54:55;4.60;;;0.80;;
79487;SDS011;68949;53.176;18.088;2023-04-26T07:57:21;5.30;;;0.70;;
79487;SDS011;68949;53.176;18.088;2023-04-26T07:59:48;3.40;;;0.50;;
79487;SDS011;68949;53.176;18.088;2023-04-26T08:02:14;5.60;;;0.80;;
79487;SDS011;68949;53.176;18.088;2023-04-26T08:04:47;2.70;;;0.60;;
79487;SDS011;68949;53.176;18.088;2023-04-26T08:07:15;3.90;;;0.90;;
79487;SDS011;68949;53.176;18.088;2023-04-26T08:09:42;5.00;;;0.90;;
79487;SDS011;68949;53.176;18.088;2023-04-26T08:12:10;4.30;;;0.60;;
79487;SDS011;68949;53.176;18.088;2023-04-26T08:14:37;3.90;;;0.60;;
79487;SDS011;68949;53.176;18.088;2023-04-26T08:17:04;3.90;;;0.80;;
79487;SDS011;68949;53.176;18.088;2023-04-26T08:19:32;5.20;;;0.80;;
79487;SDS011;68949;53.176;18.088;2023-04-26T08:21:59;1.60;;;0.30;;
79487;SDS011;68949;53.176;18.088;2023-04-26T08:24:26;7.30;;;0.50;;
79487;SDS011;68949;53.176;18.088;2023-04-26T08:26:54;4.40;;;0.90;;
79487;SDS011;68949;53.176;18.088;2023-04-26T08:29:22;4.10;;;0.50;;
79487;SDS011;68949;53.176;18.088;2023-04-26T08:31:48;7.20;;;1.10;;
79487;SDS011;68949;53.176;18.088;2023-04-26T08:34:15;3.40;;;0.50;;
79487;SDS011;68949;53.176;18.088;2023-04-26T08:36:42;7.00;;;0.90;;
79487;SDS011;68949;53.176;18.088;2023-04-26T08:39:09;6.00;;;0.60;;
79487;SDS011;68949;53.176;18.088;2023-04-26T08:41:52;5.00;;;0.70;;
79487;SDS011;68949;53.176;18.088;2023-04-26T08:44:22;3.30;;;0.60;;
79487;SDS011;68949;53.176;18.088;2023-04-26T08:47:02;4.00;;;0.90;;
79487;SDS011;68949;53.176;18.088;2023-04-26T08:49:43;4.90;;;0.70;;
79487;SDS011;68949;53.176;18.088;2023-04-26T08:52:14;3.50;;;0.50;;
79487;SDS011;68949;53.176;18.088;2023-04-26T08:54:50;6.20;;;0.70;;
79487;SDS011;68949;53.176;18.088;2023-04-26T08:57:20;4.50;;;0.50;;
79487;SDS011;68949;53.176;18.088;2023-04-26T08:59:47;3.00;;;0.30;;
79487;SDS011;68949;53.176;18.088;2023-04-26T09:02:19;2.60;;;0.40;;
79487;SDS011;68949;53.176;18.088;2023-04-26T09:04:48;6.50;;;0.50;;
79487;SDS011;68949;53.176;18.088;2023-04-26T09:07:22;4.90;;;1.10;;
79487;SDS011;68949;53.176;18.088;2023-04-26T09:09:57;4.00;;;0.70;;
79487;SDS011;68949;53.176;18.088;2023-04-26T09:12:25;5.90;;;1.10;;
79487;SDS011;68949;53.176;18.088;2023-04-26T09:14:52;5.20;;;0.80;;
79487;SDS011;68949;53.176;18.088;2023-04-26T09:17:28;5.10;;;0.90;;
79487;SDS011;68949;53.176;18.088;2023-04-26T09:20:22;5.10;;;0.80;;
79487;SDS011;68949;53.176;18.088;2023-04-26T09:23:03;4.70;;;0.80;;
79487;SDS011;68949;53.176;18.088;2023-04-26T09:25:34;4.90;;;0.70;;
79487;SDS011;68949;53.176;18.088;2023-04-26T09:28:03;3.00;;;0.70;;
79487;SDS011;68949;53.176;18.088;2023-04-26T09:30:37;6.60;;;0.60;;
79487;SDS011;68949;53.176;18.088;2023-04-26T09:33:05;3.80;;;0.60;;
79487;SDS011;68949;53.176;18.088;2023-04-26T09:35:36;4.90;;;0.70;;
79487;SDS011;68949;53.176;18.088;2023-04-26T09:38:11;2.80;;;0.40;;
79487;SDS011;68949;53.176;18.088;2023-04-26T09:40:45;4.40;;;0.40;;
79487;SDS011;68949;53.176;18.088;2023-04-26T09:43:15;3.00;;;0.40;;
79487;SDS011;68949;53.176;18.088;2023-04-26T09:48:27;3.30;;;0.50;;
79487;SDS011;68949;53.176;18.088;2023-04-26T09:51:10;6.90;;;0.80;;
79487;SDS011;68949;53.176;18.088;2023-04-26T09:53:46;5.60;;;0.50;;
79487;SDS011;68949;53.176;18.088;2023-04-26T09:56:17;5.90;;;0.80;;
79487;SDS011;68949;53.176;18.088;2023-04-26T09:58:57;3.70;;;0.60;;
79487;SDS011;68949;53.176;18.088;2023-04-26T10:01:27;3.90;;;0.90;;
79487;SDS011;68949;53.176;18.088;2023-04-26T10:03:56;3.20;;;0.60;;
79487;SDS011;68949;53.176;18.088;2023-04-26T10:06:23;6.50;;;0.80;;
79487;SDS011;68949;53.176;18.088;2023-04-26T10:08:50;7.20;;;0.80;;
79487;SDS011;68949;53.176;18.088;2023-04-26T10:11:17;2.60;;;0.60;;
79487;SDS011;68949;53.176;18.088;2023-04-26T10:13:44;4.70;;;0.70;;
79487;SDS011;68949;53.176;18.088;2023-04-26T10:16:11;3.80;;;0.50;;
79487;SDS011;68949;53.176;18.088;2023-04-26T10:18:37;4.90;;;0.70;;
79487;SDS011;68949;53.176;18.088;2023-04-26T10:21:13;3.70;;;0.40;;
79487;SDS011;68949;53.176;18.088;2023-04-26T10:23:46;4.70;;;0.70;;
79487;SDS011;68949;53.176;18.088;2023-04-26T10:26:50;6.10;;;0.90;;
79487;SDS011;68949;53.176;18.088;2023-04-26T10:29:23;4.90;;;0.80;;
79487;SDS011;68949;53.176;18.088;2023-04-26T10:32:07;4.90;;;0.80;;
79487;SDS011;68949;53.176;18.088;2023-04-26T10:34:35;3.10;;;0.40;;
79487;SDS011;68949;53.176;18.088;2023-04-26T10:37:16;6.30;;;0.70;;
79487;SDS011;68949;53.176;18.088;2023-04-26T10:39:44;4.60;;;0.90;;
79487;SDS011;68949;53.176;18.088;2023-04-26T10:42:20;4.20;;;0.50;;
79487;SDS011;68949;53.176;18.088;2023-04-26T10:44:52;3.50;;;0.50;;
79487;SDS011;68949;53.176;18.088;2023-04-26T10:47:39;3.00;;;0.40;;
79487;SDS011;68949;53.176;18.088;2023-04-26T10:50:09;4.90;;;0.60;;
79487;SDS011;68949;53.176;18.088;2023-04-26T10:53:04;5.40;;;1.00;;
79487;SDS011;68949;53.176;18.088;2023-04-26T10:55:40;3.60;;;0.70;;
79487;SDS011;68949;53.176;18.088;2023-04-26T10:58:26;4.10;;;0.80;;
79487;SDS011;68949;53.176;18.088;2023-04-26T11:06:22;5.70;;;0.70;;
79487;SDS011;68949;53.176;18.088;2023-04-26T11:08:50;4.60;;;0.50;;
79487;SDS011;68949;53.176;18.088;2023-04-26T11:11:17;5.00;;;0.50;;
79487;SDS011;68949;53.176;18.088;2023-04-26T11:13:46;4.10;;;0.40;;
79487;SDS011;68949;53.176;18.088;2023-04-26T11:16:14;3.00;;;0.50;;
79487;SDS011;68949;53.176;18.088;2023-04-26T11:18:44;4.80;;;1.00;;
79487;SDS011;68949;53.176;18.088;2023-04-26T11:21:12;5.70;;;0.90;;
79487;SDS011;68949;53.176;18.088;2023-04-26T11:23:52;5.10;;;0.30;;
79487;SDS011;68949;53.176;18.088;2023-04-26T11:26:19;4.60;;;0.60;;
79487;SDS011;68949;53.176;18.088;2023-04-26T11:28:48;4.20;;;0.90;;
79487;SDS011;68949;53.176;18.088;2023-04-26T11:31:17;6.30;;;0.90;;
79487;SDS011;68949;53.176;18.088;2023-04-26T11:33:44;6.50;;;0.80;;
79487;SDS011;68949;53.176;18.088;2023-04-26T11:36:12;4.20;;;0.90;;
79487;SDS011;68949;53.176;18.088;2023-04-26T11:38:39;3.60;;;0.50;;
79487;SDS011;68949;53.176;18.088;2023-04-26T11:41:06;4.30;;;0.70;;
79487;SDS011;68949;53.176;18.088;2023-04-26T11:43:37;3.90;;;0.60;;
79487;SDS011;68949;53.176;18.088;2023-04-26T11:46:06;4.00;;;0.70;;
79487;SDS011;68949;53.176;18.088;2023-04-26T11:48:35;2.40;;;0.30;;
79487;SDS011;68949;53.176;18.088;2023-04-26T11:51:04;7.60;;;0.60;;
79487;SDS011;68949;53.176;18.088;2023-04-26T11:53:40;3.40;;;0.60;;
79487;SDS011;68949;53.176;18.088;2023-04-26T11:56:19;3.00;;;0.50;;
79487;SDS011;68949;53.176;18.088;2023-04-26T11:58:50;4.40;;;0.50;;
79487;SDS011;68949;53.176;18.088;2023-04-26T12:01:26;4.50;;;0.70;;
79487;SDS011;68949;53.176;18.088;2023-04-26T12:03:57;3.10;;;0.60;;
79487;SDS011;68949;53.176;18.088;2023-04-26T12:06:30;5.40;;;0.70;;
79487;SDS011;68949;53.176;18.088;2023-04-26T12:09:02;2.70;;;0.40;;
79487;SDS011;68949;53.176;18.088;2023-04-26T12:11:31;2.80;;;0.50;;
79487;SDS011;68949;53.176;18.088;2023-04-26T12:13:58;5.60;;;0.50;;
79487;SDS011;68949;53.176;18.088;2023-04-26T12:16:25;3.10;;;0.30;;
79487;SDS011;68949;53.176;18.088;2023-04-26T12:18:53;5.40;;;0.80;;
79487;SDS011;68949;53.176;18.088;2023-04-26T12:21:22;3.40;;;0.70;;
79487;SDS011;68949;53.176;18.088;2023-04-26T12:23:52;3.70;;;0.60;;
79487;SDS011;68949;53.176;18.088;2023-04-26T12:26:19;3.90;;;0.50;;
79487;SDS011;68949;53.176;18.088;2023-04-26T12:28:46;4.70;;;1.10;;
79487;SDS011;68949;53.176;18.088;2023-04-26T12:31:13;5.80;;;0.80;;
79487;SDS011;68949;53.176;18.088;2023-04-26T12:33:39;4.00;;;0.60;;
79487;SDS011;68949;53.176;18.088;2023-04-26T12:36:10;3.60;;;0.40;;
79487;SDS011;68949;53.176;18.088;2023-04-26T12:38:38;6.20;;;0.40;;
79487;SDS011;68949;53.176;18.088;2023-04-26T12:41:05;4.20;;;0.60;;
79487;SDS011;68949;53.176;18.088;2023-04-26T12:43:32;3.50;;;0.60;;
79487;SDS011;68949;53.176;18.088;2023-04-26T12:45:59;3.90;;;0.30;;
79487;SDS011;68949;53.176;18.088;2023-04-26T12:48:26;4.30;;;0.50;;
79487;SDS011;68949;53.176;18.088;2023-04-26T12:50:54;5.70;;;0.60;;
79487;SDS011;68949;53.176;18.088;2023-04-26T12:53:21;2.90;;;0.40;;
79487;SDS011;68949;53.176;18.088;2023-04-26T12:55:48;5.50;;;0.40;;
79487;SDS011;68949;53.176;18.088;2023-04-26T12:58:14;4.00;;;0.50;;
79487;SDS011;68949;53.176;18.088;2023-04-26T13:00:41;3.10;;;0.40;;
79487;SDS011;68949;53.176;18.088;2023-04-26T13:03:08;5.80;;;0.60;;
79487;SDS011;68949;53.176;18.088;2023-04-26T13:05:36;3.10;;;0.50;;
79487;SDS011;68949;53.176;18.088;2023-04-26T13:08:03;3.10;;;0.60;;
79487;SDS011;68949;53.176;18.088;2023-04-26T13:10:30;3.50;;;0.60;;
79487;SDS011;68949;53.176;18.088;2023-04-26T13:12:58;2.30;;;0.40;;
79487;SDS011;68949;53.176;18.088;2023-04-26T13:15:25;1.90;;;0.30;;
79487;SDS011;68949;53.176;18.088;2023-04-26T13:17:53;1.80;;;0.20;;
79487;SDS011;68949;53.176;18.088;2023-04-26T13:20:19;2.80;;;0.40;;
79487;SDS011;68949;53.176;18.088;2023-04-26T13:22:46;3.50;;;0.50;;
79487;SDS011;68949;53.176;18.088;2023-04-26T13:25:13;1.20;;;0.20;;
79487;SDS011;68949;53.176;18.088;2023-04-26T13:27:41;1.80;;;0.20;;
79487;SDS011;68949;53.176;18.088;2023-04-26T13:30:08;3.40;;;0.40;;
79487;SDS011;68949;53.176;18.088;2023-04-26T13:32:35;4.30;;;0.70;;
79487;SDS011;68949;53.176;18.088;2023-04-26T13:35:02;2.90;;;0.50;;
79487;SDS011;68949;53.176;18.088;2023-04-26T13:37:29;6.70;;;0.80;;
79487;SDS011;68949;53.176;18.088;2023-04-26T13:39:57;4.90;;;0.90;;
79487;SDS011;68949;53.176;18.088;2023-04-26T13:42:23;3.70;;;0.40;;
79487;SDS011;68949;53.176;18.088;2023-04-26T13:44:50;2.80;;;0.40;;
79487;SDS011;68949;53.176;18.088;2023-04-26T13:47:17;2.90;;;0.50;;
79487;SDS011;68949;53.176;18.088;2023-04-26T13:49:44;3.70;;;0.80;;
79487;SDS011;68949;53.176;18.088;2023-04-26T13:52:11;4.80;;;0.40;;
79487;SDS011;68949;53.176;18.088;2023-04-26T13:54:37;2.60;;;0.60;;
79487;SDS011;68949;53.176;18.088;2023-04-26T13:57:07;2.30;;;0.30;;
79487;SDS011;68949;53.176;18.088;2023-04-26T13:59:33;4.50;;;0.80;;
79487;SDS011;68949;53.176;18.088;2023-04-26T14:02:00;3.60;;;0.30;;
79487;SDS011;68949;53.176;18.088;2023-04-26T14:04:27;6.40;;;0.80;;
79487;SDS011;68949;53.176;18.088;2023-04-26T14:06:55;4.50;;;0.40;;
79487;SDS011;68949;53.176;18.088;2023-04-26T14:09:21;4.20;;;0.50;;
79487;SDS011;68949;53.176;18.088;2023-04-26T14:11:48;3.20;;;0.40;;
79487;SDS011;68949;53.176;18.088;2023-04-26T14:14:14;2.50;;;0.30;;
79487;SDS011;68949;53.176;18.088;2023-04-26T14:16:41;2.10;;;0.30;;
79487;SDS011;68949;53.176;18.088;2023-04-26T14:19:08;2.70;;;0.40;;
79487;SDS011;68949;53.176;18.088;2023-04-26T14:21:35;2.40;;;0.40;;
79487;SDS011;68949;53.176;18.088;2023-04-26T14:24:01;2.10;;;0.40;;
79487;SDS011;68949;53.176;18.088;2023-04-26T14:26:28;2.90;;;0.30;;
79487;SDS011;68949;53.176;18.088;2023-04-26T14:28:56;4.40;;;0.40;;
79487;SDS011;68949;53.176;18.088;2023-04-26T14:31:23;6.30;;;0.50;;
79487;SDS011;68949;53.176;18.088;2023-04-26T14:33:51;3.90;;;0.60;;
79487;SDS011;68949;53.176;18.088;2023-04-26T14:36:18;3.20;;;0.60;;
79487;SDS011;68949;53.176;18.088;2023-04-26T14:38:45;4.50;;;0.50;;
79487;SDS011;68949;53.176;18.088;2023-04-26T14:41:18;2.00;;;0.30;;
79487;SDS011;68949;53.176;18.088;2023-04-26T14:43:45;7.10;;;0.50;;
79487;SDS011;68949;53.176;18.088;2023-04-26T14:46:12;3.20;;;0.60;;
79487;SDS011;68949;53.176;18.088;2023-04-26T14:48:39;1.60;;;0.30;;
79487;SDS011;68949;53.176;18.088;2023-04-26T14:51:06;2.40;;;0.20;;